BR148 LLKZ-LLKZ

Flight info

Callsign BR148
Flight time N/A
Altitude 6000
Route TLLIM BOKER OVDAT RUHOT
Aircraft BE36/L-BDFGLORY/S

Departure

Time 2026-04-27 14:03
Airport Kzeiot Airport (LLKZ)

Arrival

Time N/A
Airport Kzeiot Airport (LLKZ)
Time Latitude Longitude Altitude Speed Heading
2026-04-27 13:54 30.85269 34.44524 869 ft 0 kts 314°
2026-04-27 13:57 30.85269 34.44525 869 ft 0 kts 314°
2026-04-27 14:00 30.85270 34.44524 866 ft 2 kts 336°
2026-04-27 14:00 30.85271 34.44558 870 ft 8 kts 107°
2026-04-27 14:01 30.85276 34.44652 872 ft 17 kts 54°
2026-04-27 14:01 30.85312 34.44708 871 ft 0 kts 59°
2026-04-27 14:02 30.85332 34.44739 871 ft 9 kts 40°
2026-04-27 14:02 30.85425 34.44726 868 ft 19 kts 328°
2026-04-27 14:02 30.85594 34.44599 858 ft 43 kts 326°
2026-04-27 14:02 30.85956 34.44329 848 ft 78 kts 328°
2026-04-27 14:03 30.86462 34.44003 941 ft 90 kts 339°
2026-04-27 14:03 30.87090 34.44087 1115 ft 99 kts 38°
2026-04-27 14:03 30.87458 34.44791 1324 ft 103 kts 63°
2026-04-27 14:03 30.87700 34.45512 1651 ft 86 kts 54°
2026-04-27 14:04 30.88198 34.45959 1136 ft 125 kts 48°
2026-04-27 14:04 30.88175 34.46738 1708 ft 97 kts 93°
2026-04-27 14:04 30.88065 34.47566 1791 ft 109 kts 94°
2026-04-27 14:04 30.87953 34.48494 1902 ft 122 kts 95°
2026-04-27 14:05 30.88083 34.49420 2129 ft 115 kts 54°
2026-04-27 14:05 30.88495 34.50236 2207 ft 119 kts 53°
2026-04-27 14:05 30.88914 34.51097 2338 ft 125 kts 57°
2026-04-27 14:05 30.89404 34.51904 2569 ft 121 kts 35°
2026-04-27 14:06 30.90106 34.52472 2748 ft 128 kts 36°
2026-04-27 14:06 30.90636 34.53358 2933 ft 135 kts 57°
2026-04-27 14:06 30.90936 34.53990 3029 ft 138 kts 51°
2026-04-27 14:06 30.91475 34.54969 3057 ft 153 kts 70°
2026-04-27 14:07 30.91625 34.56203 3080 ft 148 kts 80°
2026-04-27 14:07 30.91728 34.57367 2995 ft 140 kts 80°
2026-04-27 14:07 30.91822 34.58472 2981 ft 135 kts 80°
2026-04-27 14:07 30.91904 34.59542 2987 ft 130 kts 80°
2026-04-27 14:08 30.92099 34.60575 2987 ft 131 kts 51°
2026-04-27 14:08 30.92828 34.61129 3000 ft 129 kts
2026-04-27 14:08 30.93696 34.60912 2999 ft 132 kts 345°
2026-04-27 14:08 30.94596 34.61169 3000 ft 144 kts 35°
2026-04-27 14:09 30.95181 34.62118 2999 ft 151 kts 69°
2026-04-27 14:09 30.95246 34.63358 3002 ft 156 kts 88°
2026-04-27 14:09 30.95261 34.64622 3002 ft 154 kts 86°
2026-04-27 14:09 30.95274 34.65865 2997 ft 153 kts 87°
2026-04-27 14:10 30.95276 34.67111 2993 ft 154 kts 86°
2026-04-27 14:10 30.95283 34.68120 2991 ft 154 kts 83°